Time;durP1;ratioP1;P1;durP2;ratioP2;P2;SDS_P1;SDS_P2;PMS_P1;PMS_P2;Temp;Humidity;BMP_temperature;BMP_pressure;BME280_temperature;BME280_humidity;BME280_pressure;Samples;Min_cycle;Max_cycle;Signal;HPM_P1;HPM_P2
2024/02/19 00:01:56;;;;;;;1.90;0.98;;;;;;;-145.63;100.00;61273.97;5007743;28;20026;-64
2024/02/19 00:04:22;;;;;;;0.90;0.90;;;;;;;-145.63;100.00;61273.97;5009102;28;20053;-64
2024/02/19 00:06:51;;;;;;;1.05;0.95;;;;;;;-145.63;100.00;61273.97;5012313;28;20038;-63
2024/02/19 00:09:19;;;;;;;1.48;0.85;;;;;;;-145.63;100.00;61273.97;5013565;28;20076;-65
2024/02/19 00:11:46;;;;;;;1.20;1.10;;;;;;;-145.63;100.00;61273.97;5013840;28;20022;-64
2024/02/19 00:14:12;;;;;;;1.75;1.08;;;;;;;-145.63;100.00;61273.97;5012877;28;20061;-64
2024/02/19 00:16:38;;;;;;;0.93;0.75;;;;;;;-145.63;100.00;61273.97;5013492;28;20507;-64
2024/02/19 00:19:07;;;;;;;1.23;0.90;;;;;;;-145.63;100.00;61273.97;5013739;28;20044;-63
2024/02/19 00:21:32;;;;;;;1.27;0.90;;;;;;;-145.63;100.00;61273.97;5013846;28;20038;-64
2024/02/19 00:23:58;;;;;;;0.85;0.80;;;;;;;-145.63;100.00;61273.97;5013402;28;20041;-64
2024/02/19 00:26:24;;;;;;;1.77;1.00;;;;;;;-145.63;100.00;61273.97;5013366;28;20026;-66
2024/02/19 00:28:51;;;;;;;1.17;0.90;;;;;;;-145.63;100.00;61273.97;5013407;28;20410;-63
2024/02/19 00:31:16;;;;;;;1.33;1.10;;;;;;;-145.63;100.00;61273.97;5013135;28;20058;-64
2024/02/19 00:33:42;;;;;;;1.15;1.05;;;;;;;-145.63;100.00;61273.97;4996222;28;20054;-65
2024/02/19 00:36:09;;;;;;;0.90;0.90;;;;;;;-145.63;100.00;61273.97;5012501;28;20048;-64
2024/02/19 00:38:35;;;;;;;1.48;0.70;;;;;;;-145.63;100.00;61273.97;5013605;28;20022;-63
2024/02/19 00:41:03;;;;;;;1.10;1.00;;;;;;;-145.63;100.00;61273.97;5013072;28;20463;-64
2024/02/19 00:43:32;;;;;;;0.98;0.88;;;;;;;-145.63;100.00;61273.97;5013367;28;20119;-63
2024/02/19 00:45:59;;;;;;;1.05;0.85;;;;;;;-145.63;100.00;61273.97;5013501;28;20431;-64
2024/02/19 00:48:24;;;;;;;2.67;0.95;;;;;;;-145.63;100.00;61273.97;5013173;28;20479;-65
2024/02/19 00:50:50;;;;;;;0.80;0.80;;;;;;;-145.63;100.00;61273.97;5012486;28;20041;-65
2024/02/19 00:53:16;;;;;;;1.02;0.70;;;;;;;-145.63;100.00;61273.97;5013510;28;20065;-65
2024/02/19 00:55:41;;;;;;;0.70;0.70;;;;;;;-145.63;100.00;61273.97;5012107;28;20030;-65
2024/02/19 00:58:07;;;;;;;1.63;1.00;;;;;;;-145.63;100.00;61273.97;5014127;28;20045;-65
2024/02/19 01:00:33;;;;;;;1.10;0.88;;;;;;;-145.63;100.00;61273.97;5003449;28;20026;-63
2024/02/19 01:02:58;;;;;;;2.15;0.90;;;;;;;-145.63;100.00;61273.97;5012152;28;20091;-65
2024/02/19 01:05:25;;;;;;;1.45;1.05;;;;;;;-145.63;100.00;61273.97;5013247;28;20112;-65
2024/02/19 01:07:51;;;;;;;1.15;1.05;;;;;;;-145.63;100.00;61273.97;5013169;28;20037;-65
2024/02/19 01:10:18;;;;;;;1.20;1.10;;;;;;;-145.63;100.00;61273.97;5013225;28;20046;-65
2024/02/19 01:12:44;;;;;;;2.33;1.10;;;;;;;-145.63;100.00;61273.97;5013060;28;20513;-64
2024/02/19 01:15:10;;;;;;;0.80;0.80;;;;;;;-145.63;100.00;61273.97;5012429;28;20104;-63
2024/02/19 01:17:36;;;;;;;1.50;0.95;;;;;;;-145.63;100.00;61273.97;5012473;28;20026;-63
2024/02/19 01:20:02;;;;;;;1.85;0.90;;;;;;;-145.63;100.00;61273.97;5006607;28;20456;-64
2024/02/19 01:22:28;;;;;;;1.30;0.90;;;;;;;-145.63;100.00;61273.97;5011194;28;20099;-64
2024/02/19 01:24:54;;;;;;;1.77;0.90;;;;;;;-145.63;100.00;61273.97;5012245;28;20033;-63
2024/02/19 01:27:22;;;;;;;0.70;0.70;;;;;;;-145.63;100.00;61273.97;5016603;28;20040;-64
2024/02/19 01:29:48;;;;;;;2.42;1.27;;;;;;;-145.63;100.00;61273.97;5017338;28;20041;-64
2024/02/19 01:32:14;;;;;;;1.95;0.75;;;;;;;-145.63;100.00;61273.97;5016681;28;20054;-64
2024/02/19 01:34:40;;;;;;;1.25;0.70;;;;;;;-145.63;100.00;61273.97;5013881;28;20046;-64
2024/02/19 01:37:06;;;;;;;1.10;0.73;;;;;;;-145.63;100.00;61273.97;5009928;28;20049;-64
2024/02/19 01:39:32;;;;;;;0.70;0.70;;;;;;;-145.63;100.00;61273.97;5016575;28;20026;-63
2024/02/19 01:41:59;;;;;;;0.68;0.65;;;;;;;-145.63;100.00;61273.97;5014722;28;20053;-64
2024/02/19 01:44:24;;;;;;;1.25;0.70;;;;;;;-145.63;100.00;61273.97;5016602;28;20026;-65
2024/02/19 01:46:51;;;;;;;1.80;0.80;;;;;;;-145.63;100.00;61273.97;5016274;28;20052;-64
2024/02/19 01:49:17;;;;;;;2.15;0.80;;;;;;;-145.63;100.00;61273.97;5015886;28;20030;-67
2024/02/19 01:51:44;;;;;;;0.60;0.60;;;;;;;-145.63;100.00;61273.97;5007365;28;20049;-64
2024/02/19 01:54:11;;;;;;;0.90;0.80;;;;;;;-145.63;100.00;61273.97;5016839;28;20060;-64
2024/02/19 01:56:39;;;;;;;1.05;0.90;;;;;;;-145.63;100.00;61273.97;5015394;28;20168;-64
2024/02/19 01:59:07;;;;;;;1.30;0.90;;;;;;;-145.63;100.00;61273.97;5015802;28;20038;-64
2024/02/19 02:01:41;;;;;;;3.05;1.10;;;;;;;-145.63;100.00;61273.97;5015766;28;20057;-65
2024/02/19 02:04:08;;;;;;;2.65;1.63;;;;;;;-145.63;100.00;61273.97;5016820;28;20536;-64
2024/02/19 02:06:34;;;;;;;1.58;0.88;;;;;;;-145.63;100.00;61273.97;5016249;28;20080;-64
2024/02/19 02:09:00;;;;;;;0.70;0.70;;;;;;;-145.63;100.00;61273.97;5016409;28;20349;-64
2024/02/19 02:11:27;;;;;;;1.65;0.90;;;;;;;-145.63;100.00;61273.97;5016450;28;20419;-64
2024/02/19 02:13:52;;;;;;;1.17;0.80;;;;;;;-145.63;100.00;61273.97;5016031;28;20057;-64
2024/02/19 02:16:31;;;;;;;1.35;1.05;;;;;;;-145.63;100.00;61273.97;5016191;28;20164;-63
2024/02/19 02:18:57;;;;;;;1.98;1.17;;;;;;;-145.63;100.00;61273.97;5015192;28;20442;-63
2024/02/19 02:21:23;;;;;;;2.17;0.70;;;;;;;-145.63;100.00;61273.97;5015678;28;20048;-64
2024/02/19 02:23:49;;;;;;;0.70;0.70;;;;;;;-145.63;100.00;61273.97;5015783;28;20029;-63
2024/02/19 02:26:16;;;;;;;1.30;0.90;;;;;;;-145.63;100.00;61273.97;5015810;28;20050;-64
2024/02/19 02:28:44;;;;;;;2.25;0.90;;;;;;;-145.63;100.00;61273.97;5018932;28;20386;-65
2024/02/19 02:31:10;;;;;;;2.72;0.90;;;;;;;-145.63;100.00;61273.97;5029774;28;20497;-64
2024/02/19 02:33:36;;;;;;;2.60;1.15;;;;;;;-145.63;100.00;61273.97;5015809;28;20038;-63
2024/02/19 02:36:03;;;;;;;0.80;0.80;;;;;;;-145.63;100.00;61273.97;5011067;28;20096;-64
2024/02/19 02:38:29;;;;;;;1.83;0.90;;;;;;;-145.63;100.00;61273.97;5014869;28;20025;-64
2024/02/19 02:40:55;;;;;;;1.85;0.93;;;;;;;-145.63;100.00;61273.97;5015534;28;20033;-63
2024/02/19 02:43:21;;;;;;;1.42;0.95;;;;;;;-145.63;100.00;61273.97;5015529;28;20056;-64
2024/02/19 02:45:47;;;;;;;0.75;0.70;;;;;;;-145.63;100.00;61273.97;5015337;28;20034;-64
2024/02/19 02:48:13;;;;;;;1.10;0.80;;;;;;;-145.63;100.00;61273.97;5015253;28;20026;-63
2024/02/19 02:50:38;;;;;;;0.70;0.70;;;;;;;-145.63;100.00;61273.97;5015254;28;20034;-63
2024/02/19 02:53:04;;;;;;;3.28;1.02;;;;;;;-145.63;100.00;61273.97;5015449;28;20108;-65
2024/02/19 02:55:29;;;;;;;1.15;0.70;;;;;;;-145.63;100.00;61273.97;5015480;28;20034;-63
2024/02/19 02:57:55;;;;;;;0.98;0.80;;;;;;;-145.63;100.00;61273.97;5014421;28;20030;-64
2024/02/19 03:00:21;;;;;;;1.65;0.70;;;;;;;-145.63;100.00;61273.97;5014963;28;20038;-65
2024/02/19 03:02:47;;;;;;;1.05;0.70;;;;;;;-145.63;100.00;61273.97;5027634;28;20087;-65
2024/02/19 03:05:13;;;;;;;2.70;0.85;;;;;;;-145.63;100.00;61273.97;5016215;28;20113;-65
2024/02/19 03:07:39;;;;;;;2.72;0.85;;;;;;;-145.63;100.00;61273.97;5015023;28;20113;-64
2024/02/19 03:10:05;;;;;;;1.15;0.88;;;;;;;-145.63;100.00;61273.97;5015033;28;20030;-64
2024/02/19 03:12:31;;;;;;;1.45;0.77;;;;;;;-145.63;100.00;61273.97;5014722;28;20026;-64
2024/02/19 03:14:57;;;;;;;2.40;0.90;;;;;;;-145.63;100.00;61273.97;5014702;28;20056;-64
2024/02/19 03:17:23;;;;;;;1.17;0.90;;;;;;;-145.63;100.00;61273.97;5014982;28;20064;-63
2024/02/19 03:19:48;;;;;;;0.70;0.70;;;;;;;-145.63;100.00;61273.97;5014332;28;20341;-65
2024/02/19 03:22:14;;;;;;;1.35;1.23;;;;;;;-145.63;100.00;61273.97;5012280;28;20033;-63
2024/02/19 03:24:40;;;;;;;1.65;0.70;;;;;;;-145.63;100.00;61273.97;5013957;28;20083;-64
2024/02/19 03:27:05;;;;;;;2.53;0.60;;;;;;;-145.63;100.00;61273.97;5014728;28;20395;-64
2024/02/19 03:29:31;;;;;;;1.02;0.60;;;;;;;-145.63;100.00;61273.97;5014340;28;20037;-64
2024/02/19 03:31:57;;;;;;;1.77;0.77;;;;;;;-145.63;100.00;61273.97;5014688;28;20349;-64
2024/02/19 03:34:23;;;;;;;1.77;0.80;;;;;;;-145.63;100.00;61273.97;5014437;28;20038;-64
2024/02/19 03:36:50;;;;;;;1.67;0.88;;;;;;;-145.63;100.00;61273.97;5014672;28;20080;-64
2024/02/19 03:39:17;;;;;;;0.88;0.70;;;;;;;-145.63;100.00;61273.97;5013782;28;20041;-64
2024/02/19 03:41:43;;;;;;;1.27;1.00;;;;;;;-145.63;100.00;61273.97;5014205;28;20034;-64
2024/02/19 03:44:09;;;;;;;3.60;1.20;;;;;;;-145.63;100.00;61273.97;5013381;28;20029;-63
2024/02/19 03:46:35;;;;;;;2.28;1.17;;;;;;;-145.63;100.00;61273.97;5013977;28;20029;-63
2024/02/19 03:49:01;;;;;;;1.20;0.70;;;;;;;-145.63;100.00;61273.97;5014077;28;20097;-63
2024/02/19 03:51:27;;;;;;;0.82;0.68;;;;;;;-145.63;100.00;61273.97;5022388;28;20471;-65
2024/02/19 03:53:54;;;;;;;1.00;0.70;;;;;;;-145.63;100.00;61273.97;5013252;28;20087;-64
2024/02/19 03:56:20;;;;;;;0.80;0.68;;;;;;;-145.63;100.00;61273.97;5014038;28;20026;-64
2024/02/19 03:58:46;;;;;;;1.80;0.75;;;;;;;-145.63;100.00;61273.97;5017360;28;20037;-64
2024/02/19 04:01:12;;;;;;;0.70;0.60;;;;;;;-145.63;100.00;61273.97;5016568;28;20057;-64
2024/02/19 04:03:37;;;;;;;0.82;0.70;;;;;;;-145.63;100.00;61273.97;5032525;28;20060;-63
2024/02/19 04:06:03;;;;;;;0.65;0.50;;;;;;;-145.63;100.00;61273.97;5020638;28;20034;-63
2024/02/19 04:08:32;;;;;;;2.10;1.00;;;;;;;-145.63;100.00;61273.97;5014129;28;20038;-64
2024/02/19 04:10:57;;;;;;;2.00;1.25;;;;;;;-145.63;100.00;61273.97;5013849;28;20088;-64
2024/02/19 04:13:23;;;;;;;1.25;0.90;;;;;;;-145.63;100.00;61273.97;5011838;28;20483;-64
2024/02/19 04:15:49;;;;;;;1.73;1.00;;;;;;;-145.63;100.00;61273.97;5013090;28;20064;-64
2024/02/19 04:18:14;;;;;;;1.23;0.80;;;;;;;-145.63;100.00;61273.97;5013954;28;20088;-64
2024/02/19 04:20:40;;;;;;;2.47;1.05;;;;;;;-145.63;100.00;61273.97;5008102;28;20037;-64
2024/02/19 04:23:05;;;;;;;1.60;1.17;;;;;;;-145.63;100.00;61273.97;5013943;28;20042;-64
2024/02/19 04:25:31;;;;;;;2.92;1.02;;;;;;;-145.63;100.00;61273.97;5013477;28;20057;-64
2024/02/19 04:27:57;;;;;;;2.97;1.00;;;;;;;-145.63;100.00;61273.97;5014407;28;20040;-63
2024/02/19 04:30:22;;;;;;;2.17;1.25;;;;;;;-145.63;100.00;61273.97;5013715;28;20034;-65
2024/02/19 04:32:49;;;;;;;2.20;1.10;;;;;;;-145.63;100.00;61273.97;5013961;28;20045;-66
2024/02/19 04:35:14;;;;;;;3.40;1.30;;;;;;;-145.63;100.00;61273.97;5007296;28;20064;-68
2024/02/19 04:37:40;;;;;;;3.00;1.33;;;;;;;-145.63;100.00;61273.97;5013373;28;20610;-65
2024/02/19 04:40:08;;;;;;;2.78;1.27;;;;;;;-145.63;100.00;61273.97;5013908;28;20026;-66
2024/02/19 04:42:34;;;;;;;2.88;1.17;;;;;;;-145.63;100.00;61273.97;5012415;28;20471;-65
2024/02/19 04:45:00;;;;;;;3.25;1.20;;;;;;;-145.63;100.00;61273.97;5013664;28;20034;-64
2024/02/19 04:47:26;;;;;;;2.70;1.13;;;;;;;-145.63;100.00;61273.97;5012913;28;20029;-64
2024/02/19 04:49:52;;;;;;;1.38;0.90;;;;;;;-145.63;100.00;61273.97;5013547;28;20096;-64
2024/02/19 04:52:17;;;;;;;3.58;2.03;;;;;;;-145.63;100.00;61273.97;5013616;28;20037;-64
2024/02/19 04:54:43;;;;;;;3.25;1.30;;;;;;;-145.63;100.00;61273.97;5012885;28;20034;-63
2024/02/19 04:57:08;;;;;;;3.10;1.20;;;;;;;-145.63;100.00;61273.97;5012919;28;20092;-64
2024/02/19 04:59:34;;;;;;;1.80;1.25;;;;;;;-145.63;100.00;61273.97;5011732;28;20156;-65
2024/02/19 05:02:00;;;;;;;2.67;0.98;;;;;;;-145.63;100.00;61273.97;5012182;28;20120;-67
2024/02/19 05:04:26;;;;;;;2.65;1.50;;;;;;;-145.63;100.00;61273.97;5013150;28;20030;-66
2024/02/19 05:06:53;;;;;;;3.45;1.42;;;;;;;-145.63;100.00;61273.97;5013056;28;20022;-68
2024/02/19 05:09:19;;;;;;;3.78;1.30;;;;;;;-145.63;100.00;61273.97;5013194;28;20037;-64
2024/02/19 05:11:44;;;;;;;2.08;1.30;;;;;;;-145.63;100.00;61273.97;5011740;28;20030;-66
2024/02/19 05:14:10;;;;;;;2.97;1.60;;;;;;;-145.63;100.00;61273.97;5013240;28;20072;-65
2024/02/19 05:16:37;;;;;;;2.67;1.50;;;;;;;-145.63;100.00;61273.97;5012904;28;20034;-64
2024/02/19 05:19:03;;;;;;;2.55;1.08;;;;;;;-145.63;100.00;61273.97;5013233;28;20038;-66
2024/02/19 05:21:30;;;;;;;4.05;1.60;;;;;;;-145.63;100.00;61273.97;5004916;28;20088;-68
2024/02/19 05:23:57;;;;;;;4.18;1.40;;;;;;;-145.63;100.00;61273.97;5012882;28;20060;-65
2024/02/19 05:26:26;;;;;;;3.35;1.17;;;;;;;-145.63;100.00;61273.97;5011437;28;20037;-65
2024/02/19 05:28:53;;;;;;;1.98;1.10;;;;;;;-145.63;100.00;61273.97;5013485;28;20026;-64
2024/02/19 05:31:35;;;;;;;4.15;1.55;;;;;;;-145.63;100.00;61273.97;5012446;28;20545;-64
2024/02/19 05:34:03;;;;;;;2.70;1.15;;;;;;;-145.63;100.00;61273.97;5011233;28;20113;-62
2024/02/19 05:36:29;;;;;;;1.80;1.30;;;;;;;-145.63;100.00;61273.97;5020174;28;20065;-66
2024/02/19 05:38:54;;;;;;;2.13;1.35;;;;;;;-145.63;100.00;61273.97;5013045;28;20480;-66
2024/02/19 05:41:23;;;;;;;2.47;0.95;;;;;;;-145.63;100.00;61273.97;5005005;28;20040;-64
2024/02/19 05:43:49;;;;;;;1.27;1.10;;;;;;;-145.63;100.00;61273.97;5012343;28;20034;-64
2024/02/19 05:46:35;;;;;;;2.78;1.00;;;;;;;-145.63;100.00;61273.97;5012323;28;20061;-66
2024/02/19 05:49:01;;;;;;;2.97;1.13;;;;;;;-145.63;100.00;61273.97;5006633;28;20388;-64
2024/02/19 05:51:27;;;;;;;1.98;1.10;;;;;;;-145.63;100.00;61273.97;5012532;28;20065;-64
2024/02/19 05:53:56;;;;;;;3.25;1.13;;;;;;;-145.63;100.00;61273.97;5012413;28;20038;-63
2024/02/19 05:56:26;;;;;;;3.65;1.27;;;;;;;-145.63;100.00;61273.97;5019079;28;20025;-66
2024/02/19 05:58:52;;;;;;;2.30;1.10;;;;;;;-145.63;100.00;61273.97;5020239;28;20045;-65
2024/02/19 06:01:18;;;;;;;2.80;1.10;;;;;;;-145.63;100.00;61273.97;5011902;28;20049;-66
2024/02/19 06:03:44;;;;;;;2.28;1.20;;;;;;;-145.63;100.00;61273.97;5019750;28;20041;-67
2024/02/19 06:06:09;;;;;;;2.13;1.25;;;;;;;-145.63;100.00;61273.97;5012661;28;20058;-66
2024/02/19 06:08:35;;;;;;;6.05;1.75;;;;;;;-145.63;100.00;61273.97;5009112;28;20117;-64
2024/02/19 06:11:03;;;;;;;3.13;1.20;;;;;;;-145.63;100.00;61273.97;5012965;28;20066;-66
2024/02/19 06:13:29;;;;;;;2.03;1.20;;;;;;;-145.63;100.00;61273.97;5014649;28;20038;-65
2024/02/19 06:15:54;;;;;;;3.42;0.85;;;;;;;-145.63;100.00;61273.97;5015760;28;20032;-65
2024/02/19 06:18:22;;;;;;;3.92;1.05;;;;;;;-145.63;100.00;61273.97;5014573;28;20046;-65
2024/02/19 06:20:53;;;;;;;1.55;1.00;;;;;;;-145.63;100.00;61273.97;5016074;28;20037;-67
2024/02/19 06:23:19;;;;;;;2.60;1.23;;;;;;;-145.63;100.00;61273.97;5015222;28;20034;-64
2024/02/19 06:25:45;;;;;;;1.88;1.25;;;;;;;-145.63;100.00;61273.97;5015260;28;20032;-65
2024/02/19 06:28:11;;;;;;;1.83;1.50;;;;;;;-145.63;100.00;61273.97;5015647;28;20040;-66
2024/02/19 06:30:38;;;;;;;2.05;1.27;;;;;;;-145.63;100.00;61273.97;5027844;28;20118;-66
2024/02/19 06:33:06;;;;;;;2.45;1.27;;;;;;;-145.63;100.00;61273.97;5015789;28;20080;-65
2024/02/19 06:35:32;;;;;;;3.20;1.50;;;;;;;-145.63;100.00;61273.97;5014902;28;20037;-64
2024/02/19 06:37:58;;;;;;;3.47;1.70;;;;;;;-145.63;100.00;61273.97;5017851;28;20490;-66
2024/02/19 06:40:24;;;;;;;5.10;2.00;;;;;;;-145.63;100.00;61273.97;5017197;28;20105;-64
2024/02/19 06:42:50;;;;;;;2.75;1.35;;;;;;;-145.63;100.00;61273.97;5013198;28;20064;-65
2024/02/19 06:45:16;;;;;;;2.10;1.58;;;;;;;-145.63;100.00;61273.97;5013774;28;20368;-64
2024/02/19 06:47:42;;;;;;;3.33;1.70;;;;;;;-145.63;100.00;61273.97;5016215;28;20048;-66
2024/02/19 06:50:08;;;;;;;2.20;1.45;;;;;;;-145.63;100.00;61273.97;5012534;28;20117;-64
2024/02/19 06:52:34;;;;;;;3.83;1.92;;;;;;;-145.63;100.00;61273.97;5013388;28;20459;-65
2024/02/19 06:55:00;;;;;;;2.75;1.58;;;;;;;-145.63;100.00;61273.97;5012971;28;20026;-65
2024/02/19 06:57:26;;;;;;;2.55;1.20;;;;;;;-145.63;100.00;61273.97;5011821;28;20045;-65
2024/02/19 06:59:52;;;;;;;4.55;2.38;;;;;;;-145.63;100.00;61273.97;5012608;28;20056;-65
2024/02/19 07:02:20;;;;;;;3.67;2.10;;;;;;;-145.63;100.00;61273.97;5015257;28;20083;-65
2024/02/19 07:04:46;;;;;;;2.63;1.90;;;;;;;-145.63;100.00;61273.97;5013325;28;20028;-64
2024/02/19 07:07:13;;;;;;;3.03;1.80;;;;;;;-145.63;100.00;61273.97;5014835;28;20479;-64
2024/02/19 07:09:42;;;;;;;2.10;1.48;;;;;;;-145.63;100.00;61273.97;5014758;28;20045;-65
2024/02/19 07:12:08;;;;;;;5.68;1.50;;;;;;;-145.63;100.00;61273.97;5014675;28;20529;-64
2024/02/19 07:14:33;;;;;;;2.42;1.30;;;;;;;-145.63;100.00;61273.97;5014606;28;20041;-65
2024/02/19 07:17:00;;;;;;;1.50;1.20;;;;;;;-145.63;100.00;61273.97;5005914;28;20031;-63
2024/02/19 07:19:25;;;;;;;3.00;1.30;;;;;;;-145.63;100.00;61273.97;5014347;28;20030;-64
2024/02/19 07:21:51;;;;;;;4.45;1.30;;;;;;;-145.63;100.00;61273.97;5013262;28;20305;-65
2024/02/19 07:24:17;;;;;;;5.63;2.03;;;;;;;-145.63;100.00;61273.97;5013681;28;20044;-64
2024/02/19 07:26:42;;;;;;;2.78;1.60;;;;;;;-145.63;100.00;61273.97;5012913;28;20053;-65
2024/02/19 07:29:08;;;;;;;2.45;1.80;;;;;;;-145.63;100.00;61273.97;5014434;28;20034;-65
2024/02/19 07:31:34;;;;;;;3.55;1.80;;;;;;;-145.63;100.00;61273.97;5012217;28;20053;-64
2024/02/19 07:33:59;;;;;;;3.75;2.10;;;;;;;-145.63;100.00;61273.97;5011411;28;20030;-65
2024/02/19 07:36:25;;;;;;;4.18;1.70;;;;;;;-145.63;100.00;61273.97;5011436;28;20104;-65
2024/02/19 07:38:51;;;;;;;3.17;1.80;;;;;;;-145.63;100.00;61273.97;5009243;28;20034;-65
2024/02/19 07:41:17;;;;;;;1.95;1.40;;;;;;;-145.63;100.00;61273.97;5011016;28;20026;-65
2024/02/19 07:43:44;;;;;;;2.97;1.40;;;;;;;-145.63;100.00;61273.97;5014538;28;20068;-66
2024/02/19 07:46:10;;;;;;;2.40;1.70;;;;;;;-145.63;100.00;61273.97;5013888;28;20033;-65
2024/02/19 07:48:35;;;;;;;4.20;1.38;;;;;;;-145.63;100.00;61273.97;5012089;28;20145;-65
2024/02/19 07:51:01;;;;;;;4.65;1.75;;;;;;;-145.63;100.00;61273.97;5014049;28;20066;-64
2024/02/19 07:53:27;;;;;;;1.63;1.25;;;;;;;-145.63;100.00;61273.97;5011520;28;20125;-64
2024/02/19 07:56:05;;;;;;;2.75;1.50;;;;;;;-145.63;100.00;61273.97;5013988;28;20088;-64
2024/02/19 07:58:32;;;;;;;2.70;1.50;;;;;;;-145.63;100.00;61273.97;5014249;28;20038;-64
2024/02/19 08:00:57;;;;;;;3.42;1.40;;;;;;;-145.63;100.00;61273.97;5011580;28;20045;-63
2024/02/19 08:03:23;;;;;;;4.35;1.48;;;;;;;-145.63;100.00;61273.97;5000299;28;20042;-64
2024/02/19 08:05:49;;;;;;;3.08;1.20;;;;;;;-145.63;100.00;61273.97;5001746;28;20035;-63
2024/02/19 08:08:17;;;;;;;2.25;1.13;;;;;;;-145.63;100.00;61273.97;5011050;28;20414;-67
2024/02/19 08:10:43;;;;;;;1.88;1.20;;;;;;;-145.63;100.00;61273.97;5013228;28;20049;-65
2024/02/19 08:13:10;;;;;;;3.95;1.58;;;;;;;-145.63;100.00;61273.97;5007089;28;20046;-64
2024/02/19 08:15:42;;;;;;;3.03;1.73;;;;;;;-145.63;100.00;61273.97;5008921;28;20025;-65
2024/02/19 08:18:08;;;;;;;4.35;1.60;;;;;;;-145.63;100.00;61273.97;5012557;28;20053;-65
2024/02/19 08:20:36;;;;;;;1.60;1.42;;;;;;;-145.63;100.00;61273.97;5013594;28;20033;-64
2024/02/19 08:23:02;;;;;;;6.45;2.05;;;;;;;-145.63;100.00;61273.97;5013343;28;20456;-67
2024/02/19 08:25:28;;;;;;;3.20;2.45;;;;;;;-145.63;100.00;61273.97;5012534;28;20040;-65
2024/02/19 08:27:54;;;;;;;3.42;2.20;;;;;;;-145.63;100.00;61273.97;5013348;28;20101;-65
2024/02/19 08:30:20;;;;;;;5.20;2.40;;;;;;;-145.63;100.00;61273.97;5013547;28;20037;-64
2024/02/19 08:32:45;;;;;;;2.97;1.83;;;;;;;-145.63;100.00;61273.97;5010808;28;20072;-64
2024/02/19 08:35:11;;;;;;;5.05;3.05;;;;;;;-145.63;100.00;61273.97;5009530;28;20488;-64
2024/02/19 08:37:37;;;;;;;4.30;2.45;;;;;;;-145.63;100.00;61273.97;5003458;28;20459;-65
2024/02/19 08:40:05;;;;;;;3.78;2.33;;;;;;;-145.63;100.00;61273.97;5012435;28;20120;-64
2024/02/19 08:42:31;;;;;;;2.42;2.13;;;;;;;-145.63;100.00;61273.97;5011929;28;20036;-64
2024/02/19 08:44:57;;;;;;;4.75;2.25;;;;;;;-145.63;100.00;61273.97;5003431;28;20034;-64
2024/02/19 08:47:23;;;;;;;4.93;1.95;;;;;;;-145.63;100.00;61273.97;5009161;28;20861;-64
2024/02/19 08:49:48;;;;;;;3.53;1.90;;;;;;;-145.63;100.00;61273.97;5012302;28;20205;-66
2024/02/19 08:52:14;;;;;;;2.10;1.63;;;;;;;-145.63;100.00;61273.97;5013338;28;20037;-64
2024/02/19 08:54:40;;;;;;;3.63;1.90;;;;;;;-145.63;100.00;61273.97;5013114;28;20049;-64
2024/02/19 08:57:06;;;;;;;3.30;1.90;;;;;;;-145.63;100.00;61273.97;5006943;28;20092;-67
2024/02/19 08:59:33;;;;;;;3.75;1.67;;;;;;;-145.63;100.00;61273.97;5015075;28;20030;-65
2024/02/19 09:01:59;;;;;;;3.30;2.00;;;;;;;-145.63;100.00;61273.97;5013336;28;20235;-64
2024/02/19 09:04:25;;;;;;;5.53;3.17;;;;;;;-145.63;100.00;61273.97;5009468;28;20040;-63
2024/02/19 09:06:50;;;;;;;4.30;2.13;;;;;;;-145.63;100.00;61273.97;5013304;28;20026;-64
2024/02/19 09:09:16;;;;;;;6.18;2.20;;;;;;;-145.63;100.00;61273.97;5012933;28;20116;-63
2024/02/19 09:11:42;;;;;;;3.40;2.53;;;;;;;-145.63;100.00;61273.97;5012579;28;20046;-65
2024/02/19 09:14:08;;;;;;;4.25;1.40;;;;;;;-145.63;100.00;61273.97;5012396;28;20068;-64
2024/02/19 09:16:33;;;;;;;1.77;1.17;;;;;;;-145.63;100.00;61273.97;5012263;28;20084;-63
2024/02/19 09:18:59;;;;;;;2.95;1.60;;;;;;;-145.63;100.00;61273.97;5010772;28;20069;-65
2024/02/19 09:21:25;;;;;;;1.45;1.23;;;;;;;-145.63;100.00;61273.97;5012928;28;20088;-64
2024/02/19 09:23:51;;;;;;;3.17;1.50;;;;;;;-145.63;100.00;61273.97;5012358;28;20028;-63
2024/02/19 09:26:17;;;;;;;3.20;1.50;;;;;;;-145.63;100.00;61273.97;5012470;28;20029;-65
2024/02/19 09:28:44;;;;;;;5.90;2.10;;;;;;;-145.63;100.00;61273.97;5012495;28;20034;-64
2024/02/19 09:31:10;;;;;;;3.38;2.00;;;;;;;-145.63;100.00;61273.97;5011177;28;20482;-64
2024/02/19 09:33:35;;;;;;;3.78;2.40;;;;;;;-145.63;100.00;61273.97;5001849;28;20057;-64
2024/02/19 09:36:03;;;;;;;8.65;3.17;;;;;;;-145.63;100.00;61273.97;5018073;28;20038;-64
2024/02/19 09:38:29;;;;;;;5.75;2.50;;;;;;;-145.63;100.00;61273.97;5011409;28;20038;-64
2024/02/19 09:40:55;;;;;;;7.32;2.75;;;;;;;-145.63;100.00;61273.97;5012635;28;20136;-65
2024/02/19 09:43:21;;;;;;;3.75;2.17;;;;;;;-145.63;100.00;61273.97;5005286;28;20129;-65
2024/02/19 09:45:50;;;;;;;7.07;2.40;;;;;;;-145.63;100.00;61273.97;5012381;28;20087;-65
2024/02/19 09:48:19;;;;;;;3.33;2.20;;;;;;;-145.63;100.00;61273.97;5014827;28;20080;-62
2024/02/19 09:50:48;;;;;;;7.50;2.13;;;;;;;-145.63;100.00;61273.97;5011652;28;20046;-63
2024/02/19 09:53:27;;;;;;;2.63;1.80;;;;;;;-145.63;100.00;61273.97;5015536;28;20048;-64
2024/02/19 09:55:53;;;;;;;3.08;2.05;;;;;;;-145.63;100.00;61273.97;5016759;28;20065;-63
2024/02/19 09:58:19;;;;;;;4.20;2.10;;;;;;;-145.63;100.00;61273.97;5016382;28;20513;-63
2024/02/19 10:00:46;;;;;;;5.68;2.28;;;;;;;-145.63;100.00;61273.97;5017027;28;20034;-62
2024/02/19 10:03:17;;;;;;;6.22;3.42;;;;;;;-145.63;100.00;61273.97;5011204;28;20487;-62
2024/02/19 10:05:43;;;;;;;4.70;2.88;;;;;;;-145.63;100.00;61273.97;5016180;28;20045;-64
2024/02/19 10:08:13;;;;;;;4.50;2.28;;;;;;;-145.63;100.00;61273.97;5016009;28;20052;-64
2024/02/19 10:10:42;;;;;;;3.43;2.17;;;;;;;-145.63;100.00;61273.97;5015634;28;20034;-65
2024/02/19 10:13:11;;;;;;;2.08;1.52;;;;;;;-145.63;100.00;61273.97;5014958;28;20052;-64
2024/02/19 10:15:37;;;;;;;3.10;1.65;;;;;;;-145.63;100.00;61273.97;5014643;28;20532;-64
2024/02/19 10:18:20;;;;;;;8.05;2.75;;;;;;;-145.63;100.00;61273.97;5016246;28;20049;-63
2024/02/19 10:20:50;;;;;;;2.35;1.55;;;;;;;-145.63;100.00;61273.97;4982498;28;20475;-63
2024/02/19 10:23:19;;;;;;;3.58;2.05;;;;;;;-145.63;100.00;61273.97;5016165;28;20045;-64
2024/02/19 10:25:45;;;;;;;4.50;1.67;;;;;;;-145.63;100.00;61273.97;5009361;28;20034;-64
2024/02/19 10:28:11;;;;;;;2.38;1.23;;;;;;;-145.63;100.00;61273.97;5004764;28;20108;-64
2024/02/19 10:30:37;;;;;;;2.25;1.63;;;;;;;-145.63;100.00;61273.97;5002306;28;20045;-65
2024/02/19 10:33:04;;;;;;;3.35;1.60;;;;;;;-145.63;100.00;61273.97;5011894;28;20054;-65
2024/02/19 10:35:31;;;;;;;3.20;1.80;;;;;;;-145.63;100.00;61273.97;5015025;28;20041;-64
2024/02/19 10:37:58;;;;;;;4.03;1.95;;;;;;;-145.63;100.00;61273.97;5015566;28;20029;-64
2024/02/19 10:40:24;;;;;;;4.72;2.17;;;;;;;-145.63;100.00;61273.97;5011845;28;20050;-63
2024/02/19 10:42:51;;;;;;;3.72;2.30;;;;;;;-145.63;100.00;61273.97;5015065;28;20022;-63
2024/02/19 10:45:18;;;;;;;4.97;2.30;;;;;;;-145.63;100.00;61273.97;5015522;28;20104;-64
2024/02/19 10:47:44;;;;;;;4.55;2.28;;;;;;;-145.63;100.00;61273.97;5011375;28;20030;-64
2024/02/19 10:50:14;;;;;;;5.28;2.70;;;;;;;-145.63;100.00;61273.97;5015582;28;20030;-64
2024/02/19 10:52:41;;;;;;;5.88;2.83;;;;;;;-145.63;100.00;61273.97;5001789;28;20041;-65
2024/02/19 10:55:17;;;;;;;4.70;2.55;;;;;;;-145.63;100.00;61273.97;5015578;28;20650;-63
2024/02/19 10:57:47;;;;;;;4.95;2.75;;;;;;;-145.63;100.00;61273.97;5014097;28;20122;-64
2024/02/19 11:00:14;;;;;;;5.10;2.95;;;;;;;-145.63;100.00;61273.97;5007958;28;20120;-64
2024/02/19 11:02:39;;;;;;;6.40;3.60;;;;;;;-145.63;100.00;61273.97;5012710;28;20057;-63
2024/02/19 11:05:10;;;;;;;4.30;3.00;;;;;;;-145.63;100.00;61273.97;5015346;28;20034;-63
2024/02/19 11:07:36;;;;;;;4.32;2.90;;;;;;;-145.63;100.00;61273.97;5015455;28;20053;-63